Time;durP1;ratioP1;P1;durP2;ratioP2;P2;SDS_P1;SDS_P2;PMS_P1;PMS_P2;Temp;Humidity;BMP_temperature;BMP_pressure;BME280_temperature;BME280_humidity;BME280_pressure;Samples;Min_cycle;Max_cycle;Signal;HPM_P1;HPM_P2
2022/07/23 00:01:20;;;;;;;4.88;4.07;;;;;;;;;;5092970;28;20215;-84
2022/07/23 00:03:47;;;;;;;4.15;3.75;;;;;;;;;;5092600;28;20237;-84
2022/07/23 00:06:15;;;;;;;5.00;4.05;;;;;;;;;;5092849;28;20229;-84
2022/07/23 00:08:43;;;;;;;3.75;3.35;;;;;;;;;;5091620;28;20236;-84
2022/07/23 00:11:10;;;;;;;4.22;3.83;;;;;;;;;;5092871;28;20217;-84
2022/07/23 00:13:37;;;;;;;4.18;3.20;;;;;;;;;;5092190;28;20236;-85
2022/07/23 00:16:04;;;;;;;5.28;4.10;;;;;;;;;;5092373;28;20243;-84
2022/07/23 00:18:31;;;;;;;5.05;3.88;;;;;;;;;;5092408;28;20232;-84
2022/07/23 00:20:59;;;;;;;4.53;3.88;;;;;;;;;;5092511;28;20209;-85
2022/07/23 00:23:28;;;;;;;4.63;4.18;;;;;;;;;;5092214;28;20240;-84
2022/07/23 00:25:56;;;;;;;6.20;4.18;;;;;;;;;;5092170;28;20667;-85
2022/07/23 00:28:23;;;;;;;4.75;3.55;;;;;;;;;;5091811;28;20232;-85
2022/07/23 00:30:50;;;;;;;5.30;3.80;;;;;;;;;;5092098;28;20209;-84
2022/07/23 00:33:17;;;;;;;3.97;3.67;;;;;;;;;;5091879;28;20232;-84
2022/07/23 00:35:44;;;;;;;6.28;4.07;;;;;;;;;;5092257;28;20628;-84
2022/07/23 00:38:12;;;;;;;3.92;3.53;;;;;;;;;;5091774;28;20240;-85
2022/07/23 00:40:41;;;;;;;5.22;3.90;;;;;;;;;;5092150;28;20578;-84
2022/07/23 00:43:08;;;;;;;4.20;3.70;;;;;;;;;;5091734;28;20327;-84
2022/07/23 00:45:35;;;;;;;6.13;3.63;;;;;;;;;;5091894;28;20731;-84
2022/07/23 00:48:02;;;;;;;3.85;3.55;;;;;;;;;;5091511;28;20236;-84
2022/07/23 00:50:30;;;;;;;5.07;3.65;;;;;;;;;;5092084;28;20200;-84
2022/07/23 00:52:57;;;;;;;4.78;3.70;;;;;;;;;;5091439;28;20232;-84
2022/07/23 00:55:24;;;;;;;5.53;3.90;;;;;;;;;;5092335;28;20224;-84
2022/07/23 00:57:54;;;;;;;4.40;4.00;;;;;;;;;;5083008;28;20232;-84
2022/07/23 01:00:21;;;;;;;4.28;3.78;;;;;;;;;;5074204;28;20201;-84
2022/07/23 01:02:48;;;;;;;4.38;3.70;;;;;;;;;;5071190;28;20237;-85
2022/07/23 01:05:17;;;;;;;5.25;4.15;;;;;;;;;;5068554;28;20894;-84
2022/07/23 01:07:45;;;;;;;4.32;3.75;;;;;;;;;;5068706;28;20232;-84
2022/07/23 01:12:55;;;;;;;5.32;4.28;;;;;;;;;;5070475;28;20316;-84
2022/07/23 01:15:22;;;;;;;4.75;4.10;;;;;;;;;;5072256;28;20234;-84
2022/07/23 01:17:49;;;;;;;5.53;4.45;;;;;;;;;;5072021;28;20260;-84
2022/07/23 01:20:16;;;;;;;4.47;3.72;;;;;;;;;;5073481;28;20266;-84
2022/07/23 01:22:44;;;;;;;5.10;4.22;;;;;;;;;;5074615;28;20665;-84
2022/07/23 01:25:11;;;;;;;4.10;3.70;;;;;;;;;;5075455;28;20596;-84
2022/07/23 01:27:38;;;;;;;4.50;4.10;;;;;;;;;;5074751;28;20240;-84
2022/07/23 01:30:06;;;;;;;4.55;4.13;;;;;;;;;;5075344;28;20221;-85
2022/07/23 01:32:33;;;;;;;6.45;4.68;;;;;;;;;;5074934;28;20205;-84
2022/07/23 01:35:00;;;;;;;4.43;3.95;;;;;;;;;;5075716;28;20209;-84
2022/07/23 01:37:27;;;;;;;6.95;4.10;;;;;;;;;;5074482;28;20701;-84
2022/07/23 01:39:56;;;;;;;4.90;3.92;;;;;;;;;;5075719;28;20216;-84
2022/07/23 01:42:23;;;;;;;5.18;3.90;;;;;;;;;;5075139;28;20209;-84
2022/07/23 01:44:50;;;;;;;4.35;3.83;;;;;;;;;;5075018;28;20206;-84
2022/07/23 01:47:18;;;;;;;4.57;4.18;;;;;;;;;;5074830;28;20221;-84
2022/07/23 01:49:45;;;;;;;6.68;4.50;;;;;;;;;;5075279;28;20210;-84
2022/07/23 01:52:12;;;;;;;5.07;4.25;;;;;;;;;;5074940;28;20213;-84
2022/07/23 01:54:39;;;;;;;4.68;4.28;;;;;;;;;;5077734;28;20244;-86
2022/07/23 01:57:08;;;;;;;6.15;4.22;;;;;;;;;;5074799;28;20226;-85
2022/07/23 01:59:35;;;;;;;4.65;4.22;;;;;;;;;;5074226;28;20236;-85
2022/07/23 02:02:03;;;;;;;4.70;4.22;;;;;;;;;;5074364;28;20205;-85
2022/07/23 02:04:30;;;;;;;4.93;4.05;;;;;;;;;;5073843;28;20230;-85
2022/07/23 02:06:57;;;;;;;4.95;4.55;;;;;;;;;;5074211;28;20226;-85
2022/07/23 02:09:24;;;;;;;5.03;3.90;;;;;;;;;;5073681;28;20732;-85
2022/07/23 02:11:54;;;;;;;6.00;4.00;;;;;;;;;;5073926;28;20205;-85
2022/07/23 02:14:22;;;;;;;4.40;3.97;;;;;;;;;;5073497;28;20240;-86
2022/07/23 02:16:50;;;;;;;4.57;4.03;;;;;;;;;;5073808;28;20233;-85
2022/07/23 02:19:17;;;;;;;5.35;4.00;;;;;;;;;;5073572;28;20237;-85
2022/07/23 02:21:44;;;;;;;4.10;3.70;;;;;;;;;;5074327;28;20205;-85
2022/07/23 02:24:11;;;;;;;4.50;4.10;;;;;;;;;;5074338;28;20244;-85
2022/07/23 02:26:39;;;;;;;6.30;4.10;;;;;;;;;;5074017;28;20225;-85
2022/07/23 02:29:06;;;;;;;4.65;4.25;;;;;;;;;;5073323;28;20237;-86
2022/07/23 02:31:34;;;;;;;4.47;4.05;;;;;;;;;;5073288;28;20300;-85
2022/07/23 02:34:02;;;;;;;4.88;4.18;;;;;;;;;;5073477;28;20234;-85
2022/07/23 02:36:29;;;;;;;4.57;4.18;;;;;;;;;;5074305;28;20709;-85
2022/07/23 02:38:56;;;;;;;6.97;4.63;;;;;;;;;;5073248;28;20237;-86
2022/07/23 02:41:23;;;;;;;5.22;4.70;;;;;;;;;;5073654;28;20213;-85
2022/07/23 02:43:50;;;;;;;4.88;4.35;;;;;;;;;;5073261;28;20233;-86
2022/07/23 02:46:18;;;;;;;4.80;4.18;;;;;;;;;;5073301;28;20320;-86
2022/07/23 02:48:46;;;;;;;5.00;4.25;;;;;;;;;;5073202;28;20279;-86
2022/07/23 02:51:13;;;;;;;5.70;5.10;;;;;;;;;;5073602;28;20205;-87
2022/07/23 02:53:40;;;;;;;5.65;4.85;;;;;;;;;;5073276;28;20335;-86
2022/07/23 02:56:07;;;;;;;7.90;5.13;;;;;;;;;;5074153;28;20245;-87
2022/07/23 02:58:34;;;;;;;6.50;4.55;;;;;;;;;;5073720;28;20248;-86
2022/07/23 03:01:01;;;;;;;5.20;4.68;;;;;;;;;;5074485;28;20205;-86
2022/07/23 03:03:28;;;;;;;6.07;4.88;;;;;;;;;;5077720;28;20237;-85
2022/07/23 03:05:57;;;;;;;6.10;5.13;;;;;;;;;;5073123;28;20229;-85
2022/07/23 03:08:24;;;;;;;6.68;5.05;;;;;;;;;;5072689;28;20233;-86
2022/07/23 03:10:51;;;;;;;7.47;4.57;;;;;;;;;;5072860;28;20214;-86
2022/07/23 03:13:18;;;;;;;5.85;5.10;;;;;;;;;;5072393;28;20237;-86
2022/07/23 03:15:45;;;;;;;5.97;5.38;;;;;;;;;;5072869;28;20233;-85
2022/07/23 03:18:12;;;;;;;6.80;4.60;;;;;;;;;;5072478;28;20240;-85
2022/07/23 03:20:39;;;;;;;7.15;5.60;;;;;;;;;;5072734;28;20217;-85
2022/07/23 03:23:07;;;;;;;7.40;5.40;;;;;;;;;;5072086;28;20245;-86
2022/07/23 03:25:34;;;;;;;5.93;5.32;;;;;;;;;;5072877;28;20225;-86
2022/07/23 03:28:01;;;;;;;7.07;5.72;;;;;;;;;;5072615;28;20236;-85
2022/07/23 03:30:29;;;;;;;6.15;5.30;;;;;;;;;;5072541;28;20205;-84
2022/07/23 03:32:56;;;;;;;7.07;5.40;;;;;;;;;;5071941;28;20229;-85
2022/07/23 03:35:23;;;;;;;7.95;5.25;;;;;;;;;;5072716;28;20225;-86
2022/07/23 03:37:50;;;;;;;6.68;5.18;;;;;;;;;;5075742;28;20233;-86
2022/07/23 03:40:18;;;;;;;5.53;5.03;;;;;;;;;;5072705;28;20197;-85
2022/07/23 03:42:45;;;;;;;6.30;5.53;;;;;;;;;;5071761;28;20697;-86
2022/07/23 03:45:13;;;;;;;6.28;5.25;;;;;;;;;;5072538;28;20204;-87
2022/07/23 03:47:40;;;;;;;5.47;4.97;;;;;;;;;;5071654;28;20277;-86
2022/07/23 03:50:08;;;;;;;5.57;4.95;;;;;;;;;;5072249;28;20208;-86
2022/07/23 03:52:35;;;;;;;6.20;4.68;;;;;;;;;;5071832;28;20239;-86
2022/07/23 03:55:03;;;;;;;6.00;5.28;;;;;;;;;;5072251;28;20209;-86
2022/07/23 03:57:31;;;;;;;7.40;5.03;;;;;;;;;;5071545;28;20209;-86
2022/07/23 03:59:58;;;;;;;10.65;5.40;;;;;;;;;;5072378;28;20212;-86
2022/07/23 04:02:25;;;;;;;6.03;5.43;;;;;;;;;;5071469;28;20205;-86
2022/07/23 04:04:53;;;;;;;6.50;5.28;;;;;;;;;;5072385;28;20553;-86
2022/07/23 04:07:21;;;;;;;6.35;5.63;;;;;;;;;;5072127;28;20233;-86
2022/07/23 04:09:48;;;;;;;8.77;6.43;;;;;;;;;;5072396;28;20231;-86
2022/07/23 04:12:15;;;;;;;6.35;5.70;;;;;;;;;;5071583;28;20216;-86
2022/07/23 04:14:44;;;;;;;6.57;5.15;;;;;;;;;;5072274;28;20220;-86
2022/07/23 04:17:11;;;;;;;7.07;5.60;;;;;;;;;;5071930;28;20237;-86
2022/07/23 04:19:40;;;;;;;6.68;5.50;;;;;;;;;;5071957;28;20232;-86
2022/07/23 04:22:07;;;;;;;7.72;5.47;;;;;;;;;;5072156;28;20209;-86
2022/07/23 04:24:34;;;;;;;7.20;5.60;;;;;;;;;;5072706;28;20233;-86
2022/07/23 04:27:01;;;;;;;7.75;5.22;;;;;;;;;;5075743;28;20226;-86
2022/07/23 04:29:28;;;;;;;6.45;5.22;;;;;;;;;;5075305;28;20655;-86
2022/07/23 04:31:57;;;;;;;6.30;5.45;;;;;;;;;;5073514;28;20593;-86
2022/07/23 04:34:26;;;;;;;7.65;6.47;;;;;;;;;;5071738;28;20743;-86
2022/07/23 04:36:53;;;;;;;6.38;5.32;;;;;;;;;;5071837;28;20279;-85
2022/07/23 04:39:20;;;;;;;9.05;5.80;;;;;;;;;;5071454;28;20268;-86
2022/07/23 04:41:47;;;;;;;6.30;5.22;;;;;;;;;;5071524;28;20206;-86
2022/07/23 04:44:14;;;;;;;5.95;5.20;;;;;;;;;;5071304;28;20739;-86
2022/07/23 04:46:41;;;;;;;6.60;5.57;;;;;;;;;;5072060;28;20229;-86
2022/07/23 04:49:10;;;;;;;8.85;5.28;;;;;;;;;;5071701;28;20244;-87
2022/07/23 04:51:37;;;;;;;6.05;5.28;;;;;;;;;;5072143;28;20573;-87
2022/07/23 04:54:04;;;;;;;6.97;5.88;;;;;;;;;;5071169;28;20795;-87
2022/07/23 04:56:31;;;;;;;7.07;5.30;;;;;;;;;;5075432;28;20229;-87
2022/07/23 04:58:58;;;;;;;7.40;5.93;;;;;;;;;;5075306;28;20243;-88
2022/07/23 05:01:25;;;;;;;6.43;5.47;;;;;;;;;;5075563;28;20201;-87
2022/07/23 05:03:52;;;;;;;6.45;5.53;;;;;;;;;;5075281;28;20256;-87
2022/07/23 05:06:21;;;;;;;6.55;5.85;;;;;;;;;;5075699;28;20229;-87
2022/07/23 05:08:48;;;;;;;7.53;6.13;;;;;;;;;;5075403;28;20229;-86
2022/07/23 05:11:15;;;;;;;9.40;5.93;;;;;;;;;;5075853;28;20213;-86
2022/07/23 05:13:42;;;;;;;6.05;5.30;;;;;;;;;;5075210;28;20688;-86
2022/07/23 05:16:09;;;;;;;6.55;5.38;;;;;;;;;;5084937;22;20250;-84
2022/07/23 05:18:36;;;;;;;6.22;5.55;;;;;;;;;;5075847;28;20693;-84
2022/07/23 05:21:03;;;;;;;6.78;6.07;;;;;;;;;;5079787;28;20909;-84
2022/07/23 05:23:32;;;;;;;8.45;5.60;;;;;;;;;;5078993;28;20237;-84
2022/07/23 05:25:59;;;;;;;6.55;5.50;;;;;;;;;;5081903;28;20220;-84
2022/07/23 05:28:26;;;;;;;7.05;5.78;;;;;;;;;;5103155;28;20303;-85
2022/07/23 05:30:53;;;;;;;7.30;5.90;;;;;;;;;;5112956;28;20200;-85
2022/07/23 05:33:20;;;;;;;7.18;5.57;;;;;;;;;;5100499;28;20236;-84
2022/07/23 05:35:48;;;;;;;8.15;6.28;;;;;;;;;;5099232;28;20205;-83
2022/07/23 05:38:15;;;;;;;5.90;5.30;;;;;;;;;;5098939;28;20237;-84
2022/07/23 05:40:44;;;;;;;6.88;6.00;;;;;;;;;;5098719;28;20201;-84
2022/07/23 05:43:11;;;;;;;7.78;5.90;;;;;;;;;;5097577;28;20239;-84
2022/07/23 05:45:38;;;;;;;6.38;5.55;;;;;;;;;;5098715;28;20208;-84
2022/07/23 05:48:05;;;;;;;5.75;5.22;;;;;;;;;;5098385;28;20224;-84
2022/07/23 05:50:32;;;;;;;7.38;5.55;;;;;;;;;;5099470;28;20564;-84
2022/07/23 05:53:00;;;;;;;6.55;5.50;;;;;;;;;;5098815;28;20235;-84
2022/07/23 05:55:28;;;;;;;5.90;5.30;;;;;;;;;;5098553;28;20211;-84
2022/07/23 05:57:57;;;;;;;6.07;4.82;;;;;;;;;;5097116;28;20260;-84
2022/07/23 06:00:24;;;;;;;6.82;5.63;;;;;;;;;;5098755;28;20685;-84
2022/07/23 06:02:52;;;;;;;6.93;6.05;;;;;;;;;;5097897;28;20237;-84
2022/07/23 06:05:19;;;;;;;6.32;5.72;;;;;;;;;;5099149;28;20208;-85
2022/07/23 06:07:46;;;;;;;8.85;5.43;;;;;;;;;;5097376;28;20236;-85
2022/07/23 06:10:13;;;;;;;6.97;5.53;;;;;;;;;;5099321;28;20201;-85
2022/07/23 06:12:40;;;;;;;6.25;5.65;;;;;;;;;;5099254;28;20236;-88
2022/07/23 06:15:10;;;;;;;6.93;5.55;;;;;;;;;;5100468;28;20233;-88
2022/07/23 06:17:38;;;;;;;6.70;5.32;;;;;;;;;;5100295;28;20750;-88
2022/07/23 06:20:06;;;;;;;7.72;6.22;;;;;;;;;;5100326;28;20659;-86
2022/07/23 06:22:33;;;;;;;7.43;5.80;;;;;;;;;;5098972;28;20286;-87
2022/07/23 06:25:00;;;;;;;8.45;6.10;;;;;;;;;;5095893;28;20212;-80
2022/07/23 06:27:27;;;;;;;6.82;6.13;;;;;;;;;;5098708;28;20225;-79
2022/07/23 06:29:54;;;;;;;7.45;5.95;;;;;;;;;;5097085;28;20203;-81
2022/07/23 06:32:23;;;;;;;8.00;5.53;;;;;;;;;;5096495;28;20195;-79
2022/07/23 06:34:50;;;;;;;7.15;5.15;;;;;;;;;;5096238;28;20220;-81
2022/07/23 06:37:17;;;;;;;7.30;6.40;;;;;;;;;;5095598;28;20229;-81
2022/07/23 06:39:44;;;;;;;6.60;5.90;;;;;;;;;;5094156;28;20727;-82
2022/07/23 06:42:12;;;;;;;8.77;6.00;;;;;;;;;;5093919;28;20219;-82
2022/07/23 06:44:39;;;;;;;7.53;5.28;;;;;;;;;;5093978;28;20256;-82
2022/07/23 06:47:06;;;;;;;6.18;5.45;;;;;;;;;;5093920;28;20228;-82
2022/07/23 06:49:35;;;;;;;6.93;6.10;;;;;;;;;;5094043;28;20238;-80
2022/07/23 06:52:02;;;;;;;7.72;5.78;;;;;;;;;;5111757;28;20212;-81
2022/07/23 06:54:29;;;;;;;9.40;6.05;;;;;;;;;;5112069;28;20240;-82
2022/07/23 06:56:56;;;;;;;7.93;5.45;;;;;;;;;;5111221;28;20231;-82
2022/07/23 06:59:23;;;;;;;6.30;5.57;;;;;;;;;;5094479;28;20761;-82
2022/07/23 07:01:50;;;;;;;6.70;5.88;;;;;;;;;;5094337;28;20208;-81
2022/07/23 07:04:17;;;;;;;7.43;5.47;;;;;;;;;;5093349;28;20236;-81
2022/07/23 07:06:45;;;;;;;6.32;5.40;;;;;;;;;;5094297;28;20224;-81
2022/07/23 07:09:13;;;;;;;5.75;5.25;;;;;;;;;;5095161;28;20703;-81
2022/07/23 07:11:40;;;;;;;7.03;5.70;;;;;;;;;;5097146;28;20216;-81
2022/07/23 07:14:07;;;;;;;6.13;5.32;;;;;;;;;;5094550;28;20232;-80
2022/07/23 07:16:34;;;;;;;8.30;5.53;;;;;;;;;;5094080;28;20228;-82
2022/07/23 07:19:01;;;;;;;9.00;5.22;;;;;;;;;;5093057;28;20240;-81
2022/07/23 07:21:28;;;;;;;6.32;5.40;;;;;;;;;;5095973;28;20205;-81
2022/07/23 07:23:56;;;;;;;5.07;4.57;;;;;;;;;;5095268;28;20286;-80
2022/07/23 07:26:23;;;;;;;6.85;4.72;;;;;;;;;;5098029;28;20719;-81
2022/07/23 07:28:50;;;;;;;6.28;5.50;;;;;;;;;;5098249;28;20236;-80
2022/07/23 07:31:17;;;;;;;5.95;5.30;;;;;;;;;;5097085;28;20563;-81
2022/07/23 07:33:45;;;;;;;5.50;4.90;;;;;;;;;;5094652;28;20672;-81
2022/07/23 07:36:12;;;;;;;6.03;5.13;;;;;;;;;;5098001;28;20232;-80
2022/07/23 07:38:39;;;;;;;6.32;4.57;;;;;;;;;;5096287;28;20761;-80
2022/07/23 07:41:09;;;;;;;6.38;4.93;;;;;;;;;;5098904;28;20208;-79
2022/07/23 07:43:36;;;;;;;6.45;4.88;;;;;;;;;;5098588;28;20233;-80
2022/07/23 07:46:03;;;;;;;7.40;4.85;;;;;;;;;;5098608;28;20236;-80
2022/07/23 07:48:31;;;;;;;7.22;5.05;;;;;;;;;;5098786;28;20232;-80
2022/07/23 07:50:58;;;;;;;5.78;5.00;;;;;;;;;;5099073;28;20212;-80
2022/07/23 07:53:25;;;;;;;5.82;4.75;;;;;;;;;;5098143;28;20232;-80
2022/07/23 07:55:52;;;;;;;5.47;4.97;;;;;;;;;;5097640;28;20204;-80
2022/07/23 07:58:20;;;;;;;5.30;4.80;;;;;;;;;;5096886;28;20237;-80
2022/07/23 08:00:47;;;;;;;6.38;4.90;;;;;;;;;;5097659;28;20310;-80
2022/07/23 08:03:14;;;;;;;6.35;4.30;;;;;;;;;;5098058;28;20236;-80
2022/07/23 08:05:41;;;;;;;5.70;4.47;;;;;;;;;;5099701;28;20219;-80
2022/07/23 08:08:14;;;;;;;5.97;4.25;;;;;;;;;;5106263;28;20236;-80
2022/07/23 08:10:41;;;;;;;6.90;4.90;;;;;;;;;;5102541;28;20200;-81
2022/07/23 08:13:09;;;;;;;6.80;5.00;;;;;;;;;;5103816;28;20303;-81
2022/07/23 08:15:37;;;;;;;6.20;4.60;;;;;;;;;;5097936;28;20205;-80
2022/07/23 08:18:04;;;;;;;6.75;4.40;;;;;;;;;;5095872;28;20235;-81
2022/07/23 08:20:31;;;;;;;6.90;4.60;;;;;;;;;;5094165;28;20247;-82
2022/07/23 08:22:59;;;;;;;6.95;4.32;;;;;;;;;;5092750;28;20236;-80
2022/07/23 08:25:27;;;;;;;5.80;3.92;;;;;;;;;;5094760;28;20204;-82
2022/07/23 08:27:55;;;;;;;6.22;4.22;;;;;;;;;;5092462;28;20243;-81
2022/07/23 08:30:25;;;;;;;5.38;4.78;;;;;;;;;;5092346;28;20196;-82
2022/07/23 08:32:56;;;;;;;5.20;4.13;;;;;;;;;;5092312;28;20583;-82
2022/07/23 08:35:24;;;;;;;5.78;3.55;;;;;;;;;;5093099;28;20212;-82
2022/07/23 08:37:51;;;;;;;5.85;4.35;;;;;;;;;;5091901;28;20658;-81
2022/07/23 08:40:18;;;;;;;7.18;4.43;;;;;;;;;;5092616;28;20333;-82
2022/07/23 08:42:47;;;;;;;5.00;4.55;;;;;;;;;;5091876;28;20240;-82
2022/07/23 08:45:14;;;;;;;5.03;3.85;;;;;;;;;;5092843;28;20208;-83
2022/07/23 08:47:41;;;;;;;8.20;4.43;;;;;;;;;;5091829;28;20248;-82
2022/07/23 08:50:10;;;;;;;4.50;3.90;;;;;;;;;;5093369;28;20208;-82
2022/07/23 08:52:37;;;;;;;4.45;3.70;;;;;;;;;;5093764;28;20228;-79
2022/07/23 08:55:05;;;;;;;4.90;4.40;;;;;;;;;;5094154;28;20295;-81
2022/07/23 08:57:32;;;;;;;8.30;4.20;;;;;;;;;;5095491;28;20224;-81
2022/07/23 08:59:59;;;;;;;4.35;3.75;;;;;;;;;;5093941;28;20220;-83
2022/07/23 09:02:26;;;;;;;4.88;3.67;;;;;;;;;;5094556;28;20584;-83
2022/07/23 09:04:53;;;;;;;4.40;4.00;;;;;;;;;;5095311;28;20688;-80
2022/07/23 09:07:22;;;;;;;4.22;3.83;;;;;;;;;;5094417;28;20229;-81
2022/07/23 09:10:05;;;;;;;4.85;3.95;;;;;;;;;;5094071;28;20204;-82
2022/07/23 09:12:32;;;;;;;4.28;3.75;;;;;;;;;;5093745;28;20228;-82
2022/07/23 09:15:04;;;;;;;4.38;3.97;;;;;;;;;;5094142;28;20181;-82
2022/07/23 09:17:38;;;;;;;4.63;4.22;;;;;;;;;;5093724;28;20228;-83
2022/07/23 09:20:12;;;;;;;4.70;3.80;;;;;;;;;;5092734;28;20260;-83
2022/07/23 09:22:41;;;;;;;4.07;3.67;;;;;;;;;;5092751;28;20232;-83
2022/07/23 09:25:10;;;;;;;5.80;3.63;;;;;;;;;;5092807;28;20697;-85
2022/07/23 09:27:47;;;;;;;6.85;4.00;;;;;;;;;;5093452;28;20244;-82
2022/07/23 09:30:14;;;;;;;4.13;3.78;;;;;;;;;;5096213;28;20201;-82
2022/07/23 09:32:42;;;;;;;5.68;4.80;;;;;;;;;;5093887;28;20236;-82
2022/07/23 09:35:09;;;;;;;5.00;4.00;;;;;;;;;;5094324;28;20224;-82
2022/07/23 09:37:36;;;;;;;5.68;3.88;;;;;;;;;;5093811;28;20572;-81
2022/07/23 09:40:09;;;;;;;4.43;4.03;;;;;;;;;;5083161;28;20225;-81
2022/07/23 09:42:36;;;;;;;4.20;3.88;;;;;;;;;;5096544;28;20598;-82
2022/07/23 09:45:03;;;;;;;4.82;4.10;;;;;;;;;;5107562;28;20225;-80
2022/07/23 09:47:31;;;;;;;4.80;3.80;;;;;;;;;;5115595;28;20478;-80
2022/07/23 09:50:00;;;;;;;4.25;3.85;;;;;;;;;;5108833;28;20283;-81
2022/07/23 09:52:28;;;;;;;4.65;4.22;;;;;;;;;;5099828;28;20250;-79
2022/07/23 09:54:59;;;;;;;7.00;3.80;;;;;;;;;;5099327;28;20230;-80
2022/07/23 09:57:28;;;;;;;6.78;4.47;;;;;;;;;;5098211;28;20221;-80
2022/07/23 09:59:59;;;;;;;4.07;3.67;;;;;;;;;;5092008;28;20227;-80
2022/07/23 10:02:26;;;;;;;4.75;4.13;;;;;;;;;;5076468;28;20212;-79
2022/07/23 10:04:55;;;;;;;6.63;4.10;;;;;;;;;;5078047;28;20212;-82
2022/07/23 10:07:23;;;;;;;4.28;3.97;;;;;;;;;;5075636;28;20252;-83
2022/07/23 10:09:52;;;;;;;3.95;3.65;;;;;;;;;;5095152;28;20278;-82
2022/07/23 10:15:06;;;;;;;4.30;3.75;;;;;;;;;;5094180;28;20212;-81
2022/07/23 10:17:34;;;;;;;3.95;3.58;;;;;;;;;;5095592;28;20294;-79
2022/07/23 10:20:01;;;;;;;5.88;4.18;;;;;;;;;;5100424;28;20290;-80
2022/07/23 10:22:29;;;;;;;4.20;3.80;;;;;;;;;;5097906;28;20211;-79
2022/07/23 10:25:01;;;;;;;3.95;3.63;;;;;;;;;;5097687;28;20205;-81
2022/07/23 10:27:47;;;;;;;4.40;4.05;;;;;;;;;;5098249;28;20224;-80
2022/07/23 10:30:18;;;;;;;4.28;3.88;;;;;;;;;;5096844;28;20663;-82
2022/07/23 10:32:50;;;;;;;4.13;3.83;;;;;;;;;;5095474;28;20240;-80
2022/07/23 10:35:20;;;;;;;3.95;3.65;;;;;;;;;;5096568;28;20625;-79
2022/07/23 10:37:49;;;;;;;3.78;3.47;;;;;;;;;;5094938;28;20670;-80
2022/07/23 10:40:17;;;;;;;4.63;3.60;;;;;;;;;;5095480;28;20225;-79
2022/07/23 10:42:44;;;;;;;5.25;4.10;;;;;;;;;;5095523;28;20857;-80
2022/07/23 10:45:26;;;;;;;4.60;3.88;;;;;;;;;;5106922;28;20208;-82
2022/07/23 10:47:53;;;;;;;5.22;4.13;;;;;;;;;;5096211;28;20724;-81
2022/07/23 10:50:21;;;;;;;4.28;3.50;;;;;;;;;;5094557;28;20201;-83
2022/07/23 10:53:07;;;;;;;3.75;3.45;;;;;;;;;;5093659;28;20252;-80
2022/07/23 10:55:44;;;;;;;4.20;3.80;;;;;;;;;;5094029;28;20205;-80
2022/07/23 10:58:11;;;;;;;4.75;3.97;;;;;;;;;;5094327;28;20228;-80
2022/07/23 11:00:40;;;;;;;5.40;3.95;;;;;;;;;;5096240;28;20224;-82
2022/07/23 11:03:27;;;;;;;4.43;3.80;;;;;;;;;;5096613;28;20300;-79
2022/07/23 11:05:54;;;;;;;4.30;3.90;;;;;;;;;;5100324;28;20269;-80
2022/07/23 11:08:22;;;;;;;4.03;3.72;;;;;;;;;;5098166;28;20243;-79
2022/07/23 11:10:51;;;;;;;4.22;3.78;;;;;;;;;;5100020;28;20938;-79
2022/07/23 11:13:36;;;;;;;4.80;4.20;;;;;;;;;;5098656;28;20236;-79
2022/07/23 11:16:14;;;;;;;4.63;3.50;;;;;;;;;;5098555;28;20220;-80
2022/07/23 11:18:54;;;;;;;4.20;3.80;;;;;;;;;;5099310;28;20240;-79
2022/07/23 11:21:40;;;;;;;5.00;3.28;;;;;;;;;;5094659;28;20228;-78
2022/07/23 11:24:08;;;;;;;3.88;3.45;;;;;;;;;;5095482;28;20278;-78
2022/07/23 11:27:05;;;;;;;4.18;3.60;;;;;;;;;;5096366;28;20232;-79
2022/07/23 11:29:45;;;;;;;3.83;3.42;;;;;;;;;;4995277;28;20259;-80
2022/07/23 11:32:35;;;;;;;4.38;3.38;;;;;;;;;;5081834;28;20212;-78
2022/07/23 11:35:02;;;;;;;3.90;3.60;;;;;;;;;;5095686;28;20790;-78
2022/07/23 11:37:32;;;;;;;4.47;4.00;;;;;;;;;;5094997;28;20232;-79
2022/07/23 11:40:02;;;;;;;3.58;3.28;;;;;;;;;;5095466;28;20677;-78
2022/07/23 11:42:29;;;;;;;4.07;3.72;;;;;;;;;;5095426;28;20216;-79
2022/07/23 11:44:56;;;;;;;4.25;3.55;;;;;;;;;;5111220;23;20198;-82
2022/07/23 11:47:24;;;;;;;3.60;3.30;;;;;;;;;;5056866;28;20222;-83
2022/07/23 11:49:56;;;;;;;4.03;3.67;;;;;;;;;;5065130;28;20212;-83
2022/07/23 11:52:24;;;;;;;3.80;3.42;;;;;;;;;;5076064;28;20209;-83
2022/07/23 11:54:52;;;;;;;4.28;3.65;;;;;;;;;;5077309;28;20224;-83
2022/07/23 11:57:19;;;;;;;4.75;3.22;;;;;;;;;;5074485;28;20231;-83
2022/07/23 11:59:48;;;;;;;4.38;3.95;;;;;;;;;;5065803;28;20208;-83
2022/07/23 12:02:15;;;;;;;5.15;3.40;;;;;;;;;;5069518;28;20205;-83
2022/07/23 12:04:43;;;;;;;3.90;3.60;;;;;;;;;;5055531;28;20205;-83
2022/07/23 12:07:28;;;;;;;3.80;3.50;;;;;;;;;;5056863;28;20229;-83
2022/07/23 12:09:56;;;;;;;3.85;3.53;;;;;;;;;;5058667;28;20700;-82
2022/07/23 12:12:23;;;;;;;6.85;4.18;;;;;;;;;;5073782;28;20258;-83
2022/07/23 12:14:51;;;;;;;5.40;3.90;;;;;;;;;;5078157;28;20209;-82
2022/07/23 12:17:18;;;;;;;4.63;4.05;;;;;;;;;;5077414;28;20205;-83
2022/07/23 12:19:45;;;;;;;3.85;3.47;;;;;;;;;;5077328;28;20209;-83
2022/07/23 12:22:14;;;;;;;3.78;3.47;;;;;;;;;;5077969;28;20209;-83
2022/07/23 12:24:59;;;;;;;5.55;4.03;;;;;;;;;;5077280;28;20208;-83
2022/07/23 12:27:26;;;;;;;4.65;4.25;;;;;;;;;;5072798;28;20679;-83
2022/07/23 12:29:53;;;;;;;3.90;3.60;;;;;;;;;;5078315;28;20209;-83
2022/07/23 12:32:21;;;;;;;4.10;3.70;;;;;;;;;;5077654;28;20216;-82
2022/07/23 12:34:50;;;;;;;4.43;4.00;;;;;;;;;;5077823;28;20209;-83
2022/07/23 12:37:30;;;;;;;5.80;3.80;;;;;;;;;;5080437;28;20205;-83
2022/07/23 12:39:59;;;;;;;3.75;3.42;;;;;;;;;;5080431;28;20208;-83
2022/07/23 12:42:26;;;;;;;3.92;3.53;;;;;;;;;;5078742;28;20202;-83
2022/07/23 12:45:07;;;;;;;4.60;3.80;;;;;;;;;;5079184;28;20657;-83
2022/07/23 12:47:49;;;;;;;5.95;3.75;;;;;;;;;;5074588;28;20286;-86
2022/07/23 12:50:31;;;;;;;3.92;3.60;;;;;;;;;;5073045;28;20201;-86
2022/07/23 12:53:03;;;;;;;4.85;4.20;;;;;;;;;;5072861;28;20241;-85
2022/07/23 12:55:32;;;;;;;4.03;3.70;;;;;;;;;;5073632;28;20233;-84
2022/07/23 12:58:04;;;;;;;3.80;3.50;;;;;;;;;;5073715;28;20286;-86
2022/07/23 13:00:32;;;;;;;5.97;3.78;;;;;;;;;;5071750;28;20267;-87
2022/07/23 13:02:59;;;;;;;4.78;3.72;;;;;;;;;;5070165;28;20233;-86
2022/07/23 13:05:26;;;;;;;4.65;3.72;;;;;;;;;;5071638;28;20236;-85
2022/07/23 13:07:53;;;;;;;6.03;4.05;;;;;;;;;;5071084;28;20580;-86
2022/07/23 13:10:20;;;;;;;4.75;3.83;;;;;;;;;;5072573;28;20213;-86
2022/07/23 13:12:48;;;;;;;4.20;3.80;;;;;;;;;;5064412;28;20233;-85
2022/07/23 13:15:15;;;;;;;4.32;3.88;;;;;;;;;;5074233;28;20229;-86
2022/07/23 13:17:44;;;;;;;4.05;3.72;;;;;;;;;;5078440;28;20237;-86
2022/07/23 13:20:11;;;;;;;4.13;3.72;;;;;;;;;;5078129;28;20197;-85
2022/07/23 13:22:38;;;;;;;4.53;4.03;;;;;;;;;;5075156;28;20232;-86
2022/07/23 13:25:06;;;;;;;3.97;3.40;;;;;;;;;;5075476;28;20670;-86
2022/07/23 13:27:33;;;;;;;4.00;3.70;;;;;;;;;;5075429;28;20245;-86
2022/07/23 13:30:02;;;;;;;4.68;3.90;;;;;;;;;;5075635;28;20674;-89
2022/07/23 13:32:29;;;;;;;4.32;3.92;;;;;;;;;;5075069;28;20233;-86
2022/07/23 13:34:56;;;;;;;5.88;4.00;;;;;;;;;;5075860;28;20252;-86
2022/07/23 13:37:23;;;;;;;4.30;3.90;;;;;;;;;;5075030;28;20209;-85
2022/07/23 13:39:50;;;;;;;4.55;4.15;;;;;;;;;;5075872;28;20243;-86
2022/07/23 13:42:17;;;;;;;3.97;3.58;;;;;;;;;;5074422;28;20233;-85
2022/07/23 13:44:44;;;;;;;4.47;3.80;;;;;;;;;;5075940;28;20205;-86
2022/07/23 13:47:13;;;;;;;4.80;3.35;;;;;;;;;;5076473;28;20256;-86
2022/07/23 13:49:40;;;;;;;3.97;3.58;;;;;;;;;;5075713;28;20583;-85
2022/07/23 13:52:07;;;;;;;5.82;4.00;;;;;;;;;;5075259;28;20202;-86
2022/07/23 13:54:34;;;;;;;4.40;4.00;;;;;;;;;;5075316;28;20260;-85
2022/07/23 13:57:01;;;;;;;4.40;4.00;;;;;;;;;;5076028;28;20225;-85
2022/07/23 13:59:28;;;;;;;3.97;3.67;;;;;;;;;;5076287;28;20233;-85
2022/07/23 14:01:55;;;;;;;5.13;4.05;;;;;;;;;;5075121;28;20225;-85
2022/07/23 14:04:23;;;;;;;4.47;4.00;;;;;;;;;;5076199;28;20324;-85
2022/07/23 14:06:50;;;;;;;3.95;3.65;;;;;;;;;;5076903;28;20225;-86
2022/07/23 14:09:18;;;;;;;4.60;4.20;;;;;;;;;;5074478;28;20232;-84
2022/07/23 14:11:45;;;;;;;7.65;4.32;;;;;;;;;;5075023;28;20216;-85
2022/07/23 14:14:12;;;;;;;4.20;3.80;;;;;;;;;;5074685;28;20598;-85
2022/07/23 14:16:39;;;;;;;4.25;3.92;;;;;;;;;;5075421;28;20230;-83
2022/07/23 14:19:06;;;;;;;4.20;3.72;;;;;;;;;;5074459;28;20241;-86
2022/07/23 14:21:34;;;;;;;3.90;3.60;;;;;;;;;;5075658;28;20262;-86
2022/07/23 14:24:01;;;;;;;4.07;3.70;;;;;;;;;;5074641;28;20241;-86
2022/07/23 14:26:28;;;;;;;4.15;3.85;;;;;;;;;;5074862;28;20221;-87
2022/07/23 14:28:56;;;;;;;4.00;3.42;;;;;;;;;;5072894;28;20236;-87
2022/07/23 14:31:23;;;;;;;4.13;3.67;;;;;;;;;;5074622;28;20615;-86
2022/07/23 14:33:50;;;;;;;4.93;3.80;;;;;;;;;;5074304;28;20642;-85
2022/07/23 14:36:18;;;;;;;4.03;3.63;;;;;;;;;;5075030;28;20624;-85
2022/07/23 14:38:46;;;;;;;3.85;3.55;;;;;;;;;;5073625;28;20669;-85
2022/07/23 14:41:13;;;;;;;3.92;3.50;;;;;;;;;;5074576;28;20916;-86
2022/07/23 14:43:40;;;;;;;4.10;3.70;;;;;;;;;;5074265;28;20237;-87
2022/07/23 14:46:08;;;;;;;4.55;3.72;;;;;;;;;;5073950;28;20239;-85
2022/07/23 14:48:35;;;;;;;4.45;3.65;;;;;;;;;;5074531;28;20721;-86
2022/07/23 14:51:02;;;;;;;4.05;3.75;;;;;;;;;;5074397;28;20688;-87
2022/07/23 14:53:29;;;;;;;4.55;3.88;;;;;;;;;;5074038;28;20236;-86
2022/07/23 14:55:58;;;;;;;4.18;3.78;;;;;;;;;;5075616;28;20229;-85